Dallas Fort Worth International Airport
KDFW : now visible

Airfield :











YOU CAN JOIN US ON...

 
LOGIN :

Register | Disclaimer

   EN    FR    IT 

 









Legend :    VFR   Marginal VFR   IFR   Intensive IFR   Very Intensive IFR
Visi :
Ceiling :
>= 8 km
>= 3000ft
5 to 8 km
1000 to 3000 ft
1500m to 5 km
500 to 1000 ft
800 to 1500m
200 to 500 ft
< 800m
< 200 ft
Symbols :   Thunderstorms  Fog  Heavy snow  Heavy precipitations  Wind > 20 kt






- Airport Elevation : 607 ft
- IATA code : DFW


KDFW - Dallas Fort Worth International

CURRENT METAR :
  • 282253Z 29018G23KT 10SM FEW030 SCT044 SCT056 BKN210 BKN220 12/07 A2978 RMK AO2 LTG DSNT NE AND E RAE2157 TSE08 SLP081 WND SHFTD GRDLY APRNT FROPA TSE05 CB DSNT NE-E SE MOV NE P0000 T01170072 $

EXPIRED METARs :
  • 282232Z 29020G25KT 10SM FEW033 BKN044 12/08 A2977 RMK AO2 LTG DSNT NE AND E RAE2157 TSE08 OCNL LTGCG DSNT NE-E TSE05 CB DSNT NE-SE MOV E P0000 T01220083 $
  • 282208Z COR 32020KT 10SM VCTS FEW025 BKN046 OVC075 13/10 A2975 RMK AO2 LTG DSNT N WND SHFTD GRDLY APRNT FROPA RAE2157 OCNL LTGCG DSNT NE-E TSE05 CB DSNT NE-SE MOV E P0000 T01330100 $
  • 282153Z 29014KT 10SM R17C/5500VP6000FT -TSRA FEW026 BKN032CB OVC060 14/12 A2973 RMK AO2 LTG DSNT N AND NW RAB12 TSB26 SLP062 OCNL LTGIC NE-SE TS NE-SE MOV NE P0020 T01440122 $
  • 282144Z 22009G16KT 1 1/2SM TSRA FEW026 BKN032CB OVC060 15/12 A2973 RMK AO2 LTG DSNT N RAB12 TSB26 OCNL LTGIC N-OHD-S TS N-OHD-S MOV NE P0006 T01500122 $
  • 282125Z 17008KT 10SM VCTS -RA BKN025 BKN032 OVC060 16/12 A2972 RMK AO2 LTG DSNT NW RAB12 P0000 T01560117 $
  • 282104Z 17012KT 10SM BKN028 BKN039 16/11 A2972 RMK AO2 LTG DSNT W AND NW T01560111 $

TAF KDFW
Valid from the 28 at 23:00 until the 30 at 00:00 UTC


282244Z 2823/2924 29012G22KT P6SM VCTS SCT025CB BKN050
FM282330 30015G25KT P6SM BKN035
FM290000 32016G26KT P6SM OVC015
FM290300 33018G28KT P6SM OVC015
FM292100 35011KT P6SM BKN022



MET'MAP, your aeronautical weather chart ! - Copyright ORBIFLY December 2007 - Disclaimer

ORBIFLY MET'MAP TEAM :

Programming & Development : Alexandra Zaïnal
Concept & original design : Baudouin d'Aumeries
Assistance for programming : Marc-Olivier Méhu
Technical & hardware support : Manuel Goepfert

Contact : metmap@orbifly.com




SOURCES & CREDITS :

   NOAA       Earth
Advisory